Amanda, OH (43102)

7:59 PM EDT on August 31, 2015 (GMT -0400)
Pickaway-Fairfield Line | | Change Station
CLOSE
Current Station
Personal Weather Station
Location: Ashville, OH
Elevation: 815 ft
Nearby Weather Stations

Elev 815 ft 39.71 °N, 82.84 °W | Updated 57 seconds ago

Clear
Clear
76.3 °F
Feels Like 77 °F
N
0.0
Wind Variable Wind from ESE

Today
High -- | Low -- °F
--% Chance of Precip.
Yesterday
High -- | Low -- °F
Precip. -- in
6:58 AM 8:04 PM
Waning Gibbous, 93% visible
Pressure 30.06 in
Visibility 10.0 miles
Clouds Clear
Heat Index 77 °F
Dew Point 71 °F
Humidity 83%
Rainfall 0.00 in
Snow Depth Not available.
UV 0 out of 12
Pollen 9.90 out of 12
Air Quality Not available.
Flu Activity Not available.
METAR KLHQ 312353Z AUTO 00000KT 10SM CLR 25/19 A3008 RMK AO2 SLP179 T02500194 10300 20244 55000
Pressure 30.06 in
Visibility 10.0 miles
Clouds Clear
Heat Index 77 °F
Dew Point 71 °F
Humidity 83%
Rainfall 0.00 in
Snow Depth Not available.
UV 0 out of 12
Pollen 9.90 out of 12
Air Quality Not available.
Flu Activity Not available.
METAR KLHQ 312353Z AUTO 00000KT 10SM CLR 25/19 A3008 RMK AO2 SLP179 T02500194 10300 20244 55000

10-Day Weather Forecast

×

Almanac

Astronomy

Aug. 31, 2015 Rise Set
Actual Time
Civil Twilight
Nautical Twilight
Astronomical Twilight
Moon
Length of Visible Light
Length of Day
Tomorrow will be .
, % of the Moon is Illuminated

Today's Extremes

State Highs State Lows

Community

WunderPhotos

Upload Photos

1,851,395 photos uploaded!

WunderBlogs® & News

Nearby

Air Quality

  Air Quality AQ Index Pollutant
Not available.

Snow Depth

Station Depth Elevation

Earthquake Activity

City Distance Mag. Time & Date
Minimum magnitude displayed is 2.5.

Coastal Water Temperatures

Place Temperature

Stations

Nearby Weather Stations

Station Location Temp. Windchill Dew Point Humidity Wind Precip. Elev Updated Type